createdAt,value
2019-04-25T00:00:40.086Z,58.61
2019-04-25T00:01:39.949Z,58.11
2019-04-25T00:02:39.309Z,57.90
2019-04-25T00:03:39.299Z,58.21
2019-04-25T00:04:39.297Z,58.21
2019-04-25T00:05:39.278Z,57.20
2019-04-25T00:06:48.119Z,57.10
2019-04-25T00:07:39.258Z,57.30
2019-04-25T00:08:39.245Z,58.61
2019-04-25T00:09:39.235Z,57.60
2019-04-25T00:10:39.264Z,58.01
2019-04-25T00:11:39.318Z,58.51
2019-04-25T00:12:39.435Z,59.62
2019-04-25T00:13:39.698Z,59.11
2019-04-25T00:14:39.625Z,58.61
2019-04-25T00:15:39.953Z,59.11
2019-04-25T00:16:39.485Z,58.91
2019-04-25T00:17:40.111Z,58.61
2019-04-25T00:18:40.099Z,59.62
2019-04-25T00:19:39.126Z,59.22
2019-04-25T00:20:39.116Z,59.31
2019-04-25T00:21:39.245Z,59.11
2019-04-25T00:22:39.319Z,59.31
2019-04-25T00:23:39.458Z,59.72
2019-04-25T00:24:39.751Z,59.55
2019-04-25T00:25:41.519Z,59.04
2019-04-25T00:26:40.201Z,59.14
2019-04-25T00:27:39.039Z,58.81
2019-04-25T00:28:39.028Z,58.11
2019-04-25T00:29:39.020Z,58.74
2019-04-25T00:30:40.307Z,58.74
2019-04-25T00:31:38.998Z,59.14
2019-04-25T00:32:39.006Z,58.54
2019-04-25T00:33:38.975Z,58.31
2019-04-25T00:34:38.964Z,58.84
2019-04-25T00:35:38.953Z,59.22
2019-04-25T00:36:39.084Z,59.72
2019-04-25T00:37:38.941Z,60.22
2019-04-25T00:38:38.921Z,59.42
2019-04-25T00:39:38.915Z,59.92
2019-04-25T00:40:38.900Z,61.03
2019-04-25T00:41:38.889Z,60.12
2019-04-25T00:42:38.891Z,59.62
2019-04-25T00:43:38.871Z,60.42
2019-04-25T00:44:38.857Z,60.52
2019-04-25T00:45:38.845Z,60.42
2019-04-25T00:46:38.836Z,60.52
2019-04-25T00:47:38.837Z,60.42
2019-04-25T00:48:38.836Z,60.83
2019-04-25T00:49:38.804Z,61.23
2019-04-25T00:50:38.793Z,60.42
2019-04-25T00:51:38.782Z,60.52
2019-04-25T00:52:38.780Z,59.92
2019-04-25T00:53:38.760Z,61.13
2019-04-25T00:54:38.750Z,60.42
2019-04-25T00:55:38.748Z,60.93
2019-04-25T00:56:38.728Z,60.42
2019-04-25T00:57:38.725Z,60.75
2019-04-25T00:58:38.706Z,61.43
2019-04-25T00:59:38.694Z,61.83
2019-04-25T01:00:38.686Z,61.86
2019-04-25T01:01:38.673Z,62.06
2019-04-25T01:02:38.675Z,61.36
2019-04-25T01:03:38.652Z,61.25
2019-04-25T01:04:38.641Z,61.05
2019-04-25T01:05:38.630Z,61.25
2019-04-25T01:06:38.620Z,61.25
2019-04-25T01:07:38.619Z,60.35
2019-04-25T01:08:38.599Z,61.05
2019-04-25T01:09:38.588Z,61.25
2019-04-25T01:10:38.576Z,60.15
2019-04-25T01:11:38.565Z,60.85
2019-04-25T01:12:38.557Z,61.76
2019-04-25T01:13:38.557Z,61.16
2019-04-25T01:14:38.534Z,61.36
2019-04-25T01:15:38.525Z,61.66
2019-04-25T01:16:38.513Z,61.56
2019-04-25T01:17:38.503Z,62.06
2019-04-25T01:18:38.499Z,61.56
2019-04-25T01:19:38.488Z,61.05
2019-04-25T01:20:38.469Z,61.66
2019-04-25T01:21:38.459Z,61.76
2019-04-25T01:22:38.447Z,60.96
2019-04-25T01:23:38.448Z,60.96
2019-04-25T01:24:38.428Z,60.75
2019-04-25T01:25:42.331Z,61.56
2019-04-25T01:26:38.408Z,61.25
2019-04-25T01:27:38.394Z,61.36
2019-04-25T01:28:38.396Z,60.96
2019-04-25T01:29:38.374Z,61.96
2019-04-25T01:30:38.360Z,60.85
2019-04-25T01:31:38.351Z,62.16
2019-04-25T01:32:38.347Z,61.56
2019-04-25T01:33:38.340Z,61.76
2019-04-25T01:34:38.316Z,61.86
2019-04-25T01:35:38.311Z,61.96
2019-04-25T01:36:38.302Z,62.37
2019-04-25T01:37:38.284Z,62.60
2019-04-25T01:38:38.284Z,61.86
2019-04-25T01:39:38.266Z,62.26
2019-04-25T01:40:38.255Z,62.37
2019-04-25T01:41:38.243Z,61.66
2019-04-25T01:42:38.234Z,62.06
2019-04-25T01:43:38.231Z,62.16
2019-04-25T01:44:38.208Z,62.46
2019-04-25T01:45:38.200Z,62.66
2019-04-25T01:46:38.187Z,62.16
2019-04-25T01:47:38.179Z,62.46
2019-04-25T01:48:38.180Z,62.77
2019-04-25T01:49:38.154Z,62.06
2019-04-25T01:50:38.147Z,62.87
2019-04-25T01:51:38.136Z,63.57
2019-04-25T01:52:38.123Z,63.47
2019-04-25T01:53:38.123Z,61.66
2019-04-25T01:54:38.102Z,63.27
2019-04-25T01:55:38.090Z,61.46
2019-04-25T01:56:38.079Z,63.17
2019-04-25T01:57:38.078Z,61.76
2019-04-25T01:58:38.093Z,63.17
2019-04-25T01:59:38.050Z,63.17
2019-04-25T02:00:38.037Z,64.18
2019-04-25T02:01:38.026Z,63.57
2019-04-25T02:02:38.015Z,64.69
2019-04-25T02:03:38.005Z,64.18
2019-04-25T02:04:38.003Z,65.19
2019-04-25T02:05:37.985Z,65.49
2019-04-25T02:06:37.973Z,65.59
2019-04-25T02:07:37.959Z,65.49
2019-04-25T02:08:37.951Z,65.09
2019-04-25T02:09:37.954Z,65.49
2019-04-25T02:10:37.930Z,65.79
2019-04-25T02:11:37.921Z,65.79
2019-04-25T02:12:37.909Z,65.89
2019-04-25T02:13:37.896Z,66.39
2019-04-25T02:14:37.896Z,66.19
2019-04-25T02:15:37.874Z,65.59
2019-04-25T02:16:37.864Z,66.19
2019-04-25T02:17:37.861Z,65.19
2019-04-25T02:18:37.843Z,66.30
2019-04-25T02:19:37.843Z,64.18
2019-04-25T02:20:37.827Z,66.50
2019-04-25T02:21:37.812Z,66.30
2019-04-25T02:22:37.798Z,66.50
2019-04-25T02:23:37.796Z,66.50
2019-04-25T02:24:37.792Z,66.09
2019-04-25T02:25:37.767Z,66.39
2019-04-25T02:26:37.756Z,66.93
2019-04-25T02:27:37.746Z,66.80
2019-04-25T02:28:37.735Z,67.30
2019-04-25T02:29:37.735Z,66.70
2019-04-25T02:30:37.715Z,66.30
2019-04-25T02:31:37.704Z,66.93
2019-04-25T02:32:37.690Z,67.03
2019-04-25T02:33:37.681Z,67.23
2019-04-25T02:34:37.681Z,68.14
2019-04-25T02:35:37.664Z,68.04
2019-04-25T02:36:37.652Z,66.63
2019-04-25T02:37:37.639Z,67.13
2019-04-25T02:38:37.626Z,67.94
2019-04-25T02:39:37.698Z,67.84
2019-04-25T02:40:37.610Z,67.74
2019-04-25T02:41:37.597Z,66.63
2019-04-25T02:42:37.586Z,66.83
2019-04-25T02:43:37.582Z,67.33
2019-04-25T02:44:37.574Z,68.04
2019-04-25T02:45:37.576Z,67.74
2019-04-25T02:46:37.546Z,66.83
2019-04-25T02:47:37.532Z,67.94
2019-04-25T02:48:37.520Z,67.94
2019-04-25T02:49:39.579Z,68.34
2019-04-25T02:50:37.504Z,68.24
2019-04-25T02:51:37.513Z,68.44
2019-04-25T02:52:37.484Z,68.44
2019-04-25T02:53:37.733Z,68.14
2019-04-25T02:54:37.457Z,68.34
2019-04-25T02:55:37.840Z,67.84
2019-04-25T02:56:38.819Z,67.43
2019-04-25T02:57:37.422Z,68.17
2019-04-25T02:58:37.415Z,68.54
2019-04-25T02:59:37.460Z,68.27
2019-04-25T03:00:51.653Z,68.88
2019-04-25T03:01:38.392Z,68.27
2019-04-25T03:02:37.368Z,68.57
2019-04-25T03:03:37.358Z,68.88
2019-04-25T03:04:37.359Z,68.37
2019-04-25T03:05:37.373Z,68.37
2019-04-25T03:06:37.358Z,68.17
2019-04-25T03:07:37.343Z,68.37
2019-04-25T03:08:37.304Z,68.98
2019-04-25T03:09:37.293Z,68.57
2019-04-25T03:10:37.294Z,68.27
2019-04-25T03:11:37.271Z,68.27
2019-04-25T03:12:37.259Z,67.57
2019-04-25T03:13:37.249Z,67.77
2019-04-25T03:14:37.238Z,68.37
2019-04-25T03:15:37.248Z,67.97
2019-04-25T03:16:37.220Z,68.48
2019-04-25T03:17:37.211Z,67.47
2019-04-25T03:18:37.195Z,67.63
2019-04-25T03:19:37.186Z,67.87
2019-04-25T03:20:37.187Z,67.87
2019-04-25T03:21:37.170Z,67.57
2019-04-25T03:22:37.153Z,67.67
2019-04-25T03:23:37.167Z,68.37
2019-04-25T03:24:37.133Z,67.77
2019-04-25T03:25:37.144Z,67.57
2019-04-25T03:26:40.258Z,67.16
2019-04-25T03:27:37.099Z,67.36
2019-04-25T03:28:37.087Z,66.96
2019-04-25T03:29:37.076Z,67.67
2019-04-25T03:30:37.066Z,67.36
2019-04-25T03:31:37.068Z,66.56
2019-04-25T03:32:37.048Z,66.36
2019-04-25T03:33:38.487Z,67.16
2019-04-25T03:34:37.026Z,66.16
2019-04-25T03:35:37.011Z,66.66
2019-04-25T03:36:37.009Z,66.05
2019-04-25T03:37:36.991Z,66.05
2019-04-25T03:38:36.979Z,66.46
2019-04-25T03:39:36.967Z,66.36
2019-04-25T03:40:36.958Z,66.36
2019-04-25T03:41:36.956Z,66.96
2019-04-25T03:42:36.935Z,66.36
2019-04-25T03:43:36.924Z,66.36
2019-04-25T03:44:36.913Z,66.25
2019-04-25T03:45:36.910Z,66.36
2019-04-25T03:46:36.901Z,66.05
2019-04-25T03:47:36.883Z,66.49
2019-04-25T03:48:37.147Z,66.76
2019-04-25T03:49:36.859Z,66.59
2019-04-25T03:50:36.847Z,66.36
2019-04-25T03:51:36.851Z,67.10
2019-04-25T03:52:36.828Z,65.88
2019-04-25T03:53:36.816Z,66.69
2019-04-25T03:54:36.803Z,65.99
2019-04-25T03:55:36.794Z,67.19
2019-04-25T03:56:36.797Z,66.89
2019-04-25T03:57:36.772Z,67.10
2019-04-25T03:58:36.763Z,66.89
2019-04-25T03:59:36.755Z,66.89
2019-04-25T04:00:36.748Z,66.59
2019-04-25T04:01:36.741Z,66.29
2019-04-25T04:02:36.725Z,66.49
2019-04-25T04:03:36.708Z,66.59
2019-04-25T04:04:36.700Z,66.39
2019-04-25T04:05:36.695Z,66.39
2019-04-25T04:06:36.687Z,65.78
2019-04-25T04:07:36.666Z,66.29
2019-04-25T04:08:36.656Z,66.39
2019-04-25T04:09:36.642Z,66.69
2019-04-25T04:10:36.633Z,66.99
2019-04-25T04:11:36.632Z,66.62
2019-04-25T04:12:36.649Z,65.99
2019-04-25T04:13:36.601Z,66.52
2019-04-25T04:14:36.590Z,66.62
2019-04-25T04:15:36.584Z,66.32
2019-04-25T04:16:36.577Z,66.62
2019-04-25T04:17:36.571Z,66.72
2019-04-25T04:18:36.545Z,66.05
2019-04-25T04:19:36.538Z,67.13
2019-04-25T04:20:36.530Z,67.13
2019-04-25T04:21:36.524Z,66.22
2019-04-25T04:22:36.503Z,67.23
2019-04-25T04:23:36.492Z,67.02
2019-04-25T04:24:36.483Z,66.62
2019-04-25T04:25:36.471Z,66.42
2019-04-25T04:26:36.469Z,66.75
2019-04-25T04:27:36.455Z,67.26
2019-04-25T04:28:36.445Z,67.53
2019-04-25T04:29:36.446Z,66.65
2019-04-25T04:30:36.419Z,67.26
2019-04-25T04:31:36.423Z,67.36
2019-04-25T04:32:36.410Z,67.36
2019-04-25T04:33:36.390Z,68.27
2019-04-25T04:34:36.373Z,68.27
2019-04-25T04:35:36.363Z,68.37
2019-04-25T04:36:36.371Z,67.46
2019-04-25T04:37:36.343Z,68.17
2019-04-25T04:38:36.342Z,68.17
2019-04-25T04:39:36.321Z,68.07
2019-04-25T04:40:36.322Z,67.49
2019-04-25T04:41:36.304Z,68.00
2019-04-25T04:42:36.295Z,67.66
2019-04-25T04:43:36.278Z,67.60
2019-04-25T04:44:36.267Z,68.51
2019-04-25T04:45:36.256Z,68.20
2019-04-25T04:46:36.259Z,68.00
2019-04-25T04:47:36.246Z,67.80
2019-04-25T04:48:36.222Z,68.20
2019-04-25T04:49:36.216Z,66.78
2019-04-25T04:50:36.203Z,66.18
2019-04-25T04:51:36.191Z,66.58
2019-04-25T04:52:36.193Z,66.48
2019-04-25T04:53:36.171Z,66.58
2019-04-25T04:54:36.158Z,66.08
2019-04-25T04:55:36.156Z,66.61
2019-04-25T04:56:36.139Z,65.91
2019-04-25T04:57:36.413Z,66.52
2019-04-25T04:58:36.116Z,66.58
2019-04-25T04:59:36.106Z,66.72
2019-04-25T05:00:36.094Z,65.98
2019-04-25T05:01:36.086Z,66.38
2019-04-25T05:02:36.090Z,66.41
2019-04-25T05:03:36.077Z,66.48
2019-04-25T05:04:36.051Z,66.38
2019-04-25T05:05:36.040Z,66.69
2019-04-25T05:06:36.040Z,66.28
2019-04-25T05:07:36.030Z,66.38
2019-04-25T05:08:36.010Z,66.08
2019-04-25T05:09:35.999Z,65.67
2019-04-25T05:10:35.986Z,66.28
2019-04-25T05:11:35.988Z,65.84
2019-04-25T05:12:35.992Z,65.34
2019-04-25T05:13:35.958Z,65.67
2019-04-25T05:14:35.943Z,65.47
2019-04-25T05:15:35.934Z,64.64
2019-04-25T05:16:35.929Z,64.43
2019-04-25T05:17:35.927Z,64.43
2019-04-25T05:18:39.496Z,64.53
2019-04-25T05:19:35.892Z,64.00
2019-04-25T05:20:35.880Z,64.53
2019-04-25T05:21:35.868Z,63.79
2019-04-25T05:22:35.891Z,64.30
2019-04-25T05:23:35.851Z,63.59
2019-04-25T05:24:35.838Z,63.46
2019-04-25T05:25:35.829Z,63.26
2019-04-25T05:26:35.818Z,63.16
2019-04-25T05:27:46.368Z,62.76
2019-04-25T05:28:36.817Z,63.16
2019-04-25T05:29:35.783Z,62.76
2019-04-25T05:30:35.788Z,61.92
2019-04-25T05:31:35.762Z,62.43
2019-04-25T05:32:35.803Z,61.99
2019-04-25T05:33:35.747Z,61.69
2019-04-25T05:34:35.729Z,61.89
2019-04-25T05:35:35.722Z,61.08
2019-04-25T05:36:35.723Z,61.25
2019-04-25T05:37:35.701Z,61.05
2019-04-25T05:38:35.706Z,61.03
2019-04-25T05:39:35.674Z,60.49
2019-04-25T05:40:35.665Z,59.79
2019-04-25T05:41:35.977Z,59.48
2019-04-25T05:42:35.644Z,58.95
2019-04-25T05:43:35.640Z,58.42
2019-04-25T05:44:35.622Z,58.42
2019-04-25T05:45:35.612Z,58.09
2019-04-25T05:46:35.601Z,57.50
2019-04-25T05:47:35.591Z,56.86
2019-04-25T05:48:35.587Z,56.43
2019-04-25T05:49:35.568Z,56.34
2019-04-25T05:50:35.557Z,55.13
2019-04-25T05:51:35.544Z,55.71
2019-04-25T05:52:35.535Z,56.51
2019-04-25T05:53:35.540Z,55.60
2019-04-25T05:54:35.514Z,55.08
2019-04-25T05:55:35.502Z,54.15
2019-04-25T05:56:35.491Z,53.75
2019-04-25T05:57:45.542Z,53.92
2019-04-25T05:58:36.478Z,53.32
2019-04-25T05:59:35.461Z,53.82
2019-04-25T06:00:35.450Z,53.52
2019-04-25T06:01:35.936Z,52.82
2019-04-25T06:02:35.427Z,52.22
2019-04-25T06:03:35.426Z,52.80
2019-04-25T06:04:35.404Z,52.72
2019-04-25T06:05:35.395Z,52.80
2019-04-25T06:06:36.839Z,53.12
2019-04-25T06:07:35.373Z,52.32
2019-04-25T06:08:35.372Z,52.42
2019-04-25T06:09:35.822Z,52.62
2019-04-25T06:10:35.342Z,52.92
2019-04-25T06:11:35.333Z,52.62
2019-04-25T06:12:35.320Z,52.42
2019-04-25T06:13:35.363Z,52.62
2019-04-25T06:14:35.296Z,53.62
2019-04-25T06:15:35.285Z,53.32
2019-04-25T06:16:35.278Z,53.55
2019-04-25T06:17:35.265Z,53.62
2019-04-25T06:18:35.267Z,52.72
2019-04-25T06:19:35.287Z,52.92
2019-04-25T06:20:35.233Z,52.52
2019-04-25T06:21:35.221Z,52.34
2019-04-25T06:22:35.212Z,52.64
2019-04-25T06:23:35.220Z,52.64
2019-04-25T06:24:35.210Z,53.34
2019-04-25T06:25:39.621Z,53.55
2019-04-25T06:26:39.759Z,53.85
2019-04-25T06:27:35.346Z,53.34
2019-04-25T06:28:35.148Z,53.55
2019-04-25T06:29:35.146Z,52.87
2019-04-25T06:30:35.364Z,53.47
2019-04-25T06:31:35.120Z,52.97
2019-04-25T06:32:35.532Z,53.59
2019-04-25T06:33:35.125Z,52.69
2019-04-25T06:34:36.453Z,53.90
2019-04-25T06:35:35.925Z,53.20
2019-04-25T06:36:35.400Z,53.72
2019-04-25T06:37:35.226Z,53.82
2019-04-25T06:38:35.041Z,53.32
2019-04-25T06:39:35.052Z,52.92
2019-04-25T06:40:35.024Z,53.45
2019-04-25T06:41:35.355Z,53.85
2019-04-25T06:42:34.997Z,54.25
2019-04-25T06:43:34.986Z,53.14
2019-04-25T06:44:34.974Z,54.02
2019-04-25T06:45:34.976Z,54.13
2019-04-25T06:46:34.954Z,54.13
2019-04-25T06:47:34.945Z,53.65
2019-04-25T06:48:35.231Z,53.22
2019-04-25T06:49:37.305Z,53.42
2019-04-25T06:50:35.388Z,54.02
2019-04-25T06:51:34.900Z,53.12
2019-04-25T06:52:35.456Z,53.42
2019-04-25T06:53:34.878Z,53.22
2019-04-25T06:54:35.273Z,52.39
2019-04-25T06:55:34.913Z,53.12
2019-04-25T06:56:34.848Z,52.89
2019-04-25T06:57:34.835Z,51.59
2019-04-25T06:58:34.829Z,51.31
2019-04-25T06:59:37.823Z,50.21
2019-04-25T07:00:40.953Z,51.31
2019-04-25T07:01:35.791Z,50.91
2019-04-25T07:02:35.159Z,51.89
2019-04-25T07:03:35.775Z,52.09
2019-04-25T07:04:34.903Z,50.18
2019-04-25T07:05:40.274Z,50.59
2019-04-25T07:06:35.752Z,51.17
2019-04-25T07:07:35.209Z,51.49
2019-04-25T07:08:35.329Z,51.59
2019-04-25T07:09:35.971Z,50.29
2019-04-25T07:10:35.013Z,51.19
2019-04-25T07:11:35.811Z,50.89
2019-04-25T07:12:35.978Z,51.19
2019-04-25T07:13:38.590Z,51.19
2019-04-25T07:14:36.949Z,50.18
2019-04-25T07:15:35.282Z,51.39
2019-04-25T07:16:34.706Z,50.89
2019-04-25T07:17:35.028Z,51.29
2019-04-25T07:18:37.080Z,50.38
2019-04-25T07:19:35.566Z,50.59
2019-04-25T07:20:35.499Z,49.98
2019-04-25T07:21:35.580Z,50.29
2019-04-25T07:22:35.398Z,49.68
2019-04-25T07:23:34.709Z,49.28
2019-04-25T07:24:35.332Z,50.29
2019-04-25T07:25:35.800Z,50.09
2019-04-25T07:26:39.476Z,49.18
2019-04-25T07:27:35.665Z,50.48
2019-04-25T07:28:36.047Z,49.98
2019-04-25T07:29:34.886Z,49.78
2019-04-25T07:30:49.298Z,50.29
2019-04-25T07:31:35.725Z,49.98
2019-04-25T07:32:34.889Z,50.26
2019-04-25T07:33:35.042Z,50.66
2019-04-25T07:34:35.107Z,49.16
2019-04-25T07:35:34.701Z,49.26
2019-04-25T07:36:35.107Z,49.33
2019-04-25T07:37:37.197Z,48.13
2019-04-25T07:38:35.026Z,47.41
2019-04-25T07:39:35.324Z,47.88
2019-04-25T07:40:35.020Z,47.38
2019-04-25T07:41:36.808Z,46.86
2019-04-25T07:42:35.427Z,45.24
2019-04-25T07:43:35.395Z,45.72
2019-04-25T07:44:47.821Z,44.39
2019-04-25T07:45:36.242Z,44.67
2019-04-25T07:46:38.197Z,44.55
2019-04-25T07:47:36.380Z,43.55
2019-04-25T07:48:37.142Z,43.55
2019-04-25T07:49:34.835Z,43.83
2019-04-25T07:50:35.349Z,43.83
2019-04-25T07:51:34.650Z,43.03
2019-04-25T07:52:34.858Z,43.53
2019-04-25T07:53:35.864Z,43.53
2019-04-25T07:54:35.395Z,43.23
2019-04-25T07:55:36.341Z,43.73
2019-04-25T07:56:35.245Z,43.53
2019-04-25T07:57:34.903Z,44.23
2019-04-25T07:58:45.415Z,43.93
2019-04-25T07:59:36.312Z,43.95
2019-04-25T08:00:35.258Z,44.15
2019-04-25T08:01:37.283Z,44.55
2019-04-25T08:02:35.029Z,44.25
2019-04-25T08:03:35.253Z,43.95
2019-04-25T08:04:35.756Z,43.63
2019-04-25T08:05:35.343Z,45.03
2019-04-25T08:06:34.585Z,45.03
2019-04-25T08:07:35.245Z,44.35
2019-04-25T08:08:34.992Z,43.95
2019-04-25T08:09:35.414Z,44.45
2019-04-25T08:10:34.686Z,42.35
2019-04-25T08:11:35.037Z,43.93
2019-04-25T08:12:34.651Z,43.93
2019-04-25T08:13:35.082Z,43.63
2019-04-25T08:14:35.068Z,43.33
2019-04-25T08:15:35.002Z,43.63
2019-04-25T08:16:34.778Z,42.03
2019-04-25T08:17:35.825Z,43.43
2019-04-25T08:18:35.115Z,42.83
2019-04-25T08:19:34.674Z,43.03
2019-04-25T08:20:34.709Z,43.71
2019-04-25T08:21:34.477Z,43.51
2019-04-25T08:22:42.936Z,41.52
2019-04-25T08:23:37.717Z,43.41
2019-04-25T08:24:34.888Z,42.11
2019-04-25T08:25:38.889Z,41.31
2019-04-25T08:26:36.221Z,42.69
2019-04-25T08:27:34.774Z,42.10
2019-04-25T08:28:34.547Z,42.19
2019-04-25T08:29:39.016Z,42.27
2019-04-25T08:30:35.305Z,40.98
2019-04-25T08:31:34.959Z,39.88
2019-04-25T08:32:35.518Z,41.38
2019-04-25T08:33:34.564Z,42.47
2019-04-25T08:34:35.732Z,41.36
2019-04-25T08:35:34.262Z,42.35
2019-04-25T08:36:38.084Z,41.38
2019-04-25T08:37:34.458Z,40.36
2019-04-25T08:38:34.850Z,41.66
2019-04-25T08:39:36.943Z,41.33
2019-04-25T08:40:35.729Z,41.24
2019-04-25T08:41:34.811Z,40.64
2019-04-25T08:42:35.423Z,41.33
2019-04-25T08:43:36.322Z,40.84
2019-04-25T08:44:34.823Z,40.62
2019-04-25T08:45:35.717Z,41.02
2019-04-25T08:46:35.836Z,38.23
2019-04-25T08:47:35.771Z,40.62
2019-04-25T08:48:34.612Z,39.70
2019-04-25T08:49:34.898Z,38.81
2019-04-25T08:50:37.171Z,38.89
2019-04-25T08:51:35.208Z,36.40
2019-04-25T08:52:35.494Z,37.10
2019-04-25T08:53:35.165Z,39.98
2019-04-25T08:54:35.440Z,38.97
2019-04-25T08:55:34.917Z,38.47
2019-04-25T08:56:35.108Z,37.68
2019-04-25T08:57:34.165Z,37.68
2019-04-25T08:58:35.128Z,37.68
2019-04-25T08:59:40.117Z,36.66
2019-04-25T09:00:35.759Z,38.16
2019-04-25T09:01:36.493Z,36.87
2019-04-25T09:02:36.062Z,35.87
2019-04-25T09:03:35.275Z,36.47
2019-04-25T09:04:35.711Z,35.57
2019-04-25T09:05:36.089Z,36.87
2019-04-25T09:06:36.053Z,35.16
2019-04-25T09:07:35.381Z,35.16
2019-04-25T09:08:36.015Z,36.15
2019-04-25T09:09:35.331Z,36.85
2019-04-25T09:10:35.781Z,35.44
2019-04-25T09:11:36.142Z,35.14
2019-04-25T09:12:35.518Z,35.14
2019-04-25T09:13:35.807Z,36.04
2019-04-25T09:14:35.581Z,36.53
2019-04-25T09:15:35.641Z,36.91
2019-04-25T09:16:34.746Z,36.61
2019-04-25T09:17:35.883Z,36.22
2019-04-25T09:18:35.737Z,35.42
2019-04-25T09:19:35.873Z,36.69
2019-04-25T09:20:38.067Z,36.30
2019-04-25T09:21:36.445Z,36.60
2019-04-25T09:22:36.101Z,36.69
2019-04-25T09:23:35.273Z,33.82
2019-04-25T09:24:36.269Z,32.71
2019-04-25T09:25:34.599Z,31.63
2019-04-25T09:26:34.911Z,31.32
2019-04-25T09:27:34.376Z,31.52
2019-04-25T09:28:35.065Z,33.50
2019-04-25T09:29:34.388Z,33.01
2019-04-25T09:30:34.956Z,32.02
2019-04-25T09:31:34.329Z,31.51
2019-04-25T09:32:33.797Z,30.91
2019-04-25T09:33:35.141Z,33.09
2019-04-25T09:34:33.575Z,32.79
2019-04-25T09:35:33.578Z,29.63
2019-04-25T09:36:33.648Z,31.11
2019-04-25T09:37:33.575Z,32.68
2019-04-25T09:38:34.799Z,32.98
2019-04-25T09:39:33.835Z,31.39
2019-04-25T09:40:34.177Z,32.18
2019-04-25T09:41:33.640Z,32.58
2019-04-25T09:42:33.819Z,33.75
2019-04-25T09:43:33.484Z,33.85
2019-04-25T09:44:33.072Z,33.87
2019-04-25T09:45:33.545Z,32.98
2019-04-25T09:46:34.209Z,33.97
2019-04-25T09:47:33.537Z,33.97
2019-04-25T09:48:35.384Z,34.06
2019-04-25T09:49:34.994Z,34.56
2019-04-25T09:50:33.954Z,33.85
2019-04-25T09:51:33.565Z,35.04
2019-04-25T09:52:34.021Z,33.45
2019-04-25T09:53:34.261Z,33.85
2019-04-25T09:54:33.418Z,34.23
2019-04-25T09:55:34.029Z,33.84
2019-04-25T09:56:33.958Z,33.84
2019-04-25T09:57:33.447Z,32.76
2019-04-25T09:58:33.846Z,32.15
2019-04-25T09:59:33.159Z,32.15
2019-04-25T10:00:33.417Z,33.94
2019-04-25T10:01:33.852Z,32.45
2019-04-25T10:02:32.874Z,34.12
2019-04-25T10:03:33.363Z,32.35
2019-04-25T10:04:34.508Z,31.54
2019-04-25T10:05:33.913Z,32.43
2019-04-25T10:06:33.293Z,32.34
2019-04-25T10:07:32.822Z,31.05
2019-04-25T10:08:34.222Z,31.74
2019-04-25T10:09:33.746Z,31.15
2019-04-25T10:10:32.802Z,31.43
2019-04-25T10:11:33.502Z,29.75
2019-04-25T10:12:34.127Z,29.17
2019-04-25T10:13:33.717Z,29.85
2019-04-25T10:14:32.751Z,29.16
2019-04-25T10:15:33.913Z,28.55
2019-04-25T10:16:33.510Z,30.13
2019-04-25T10:17:33.778Z,28.65
2019-04-25T10:18:33.442Z,27.66
2019-04-25T10:19:34.319Z,27.75
2019-04-25T10:20:33.382Z,28.93
2019-04-25T10:21:34.186Z,27.84
2019-04-25T10:22:33.932Z,27.15
2019-04-25T10:23:34.230Z,27.25
2019-04-25T10:24:32.641Z,26.94
2019-04-25T10:25:33.417Z,25.27
2019-04-25T10:26:33.501Z,26.65
2019-04-25T10:27:32.613Z,24.09
2019-04-25T10:28:33.608Z,24.79
2019-04-25T10:29:41.755Z,24.58
2019-04-25T10:30:34.300Z,24.79
2019-04-25T10:31:33.907Z,24.87
2019-04-25T10:32:33.564Z,24.76
2019-04-25T10:33:32.548Z,23.66
2019-04-25T10:34:33.360Z,23.75
2019-04-25T10:35:40.854Z,24.93
2019-04-25T10:36:33.734Z,25.02
2019-04-25T10:37:33.662Z,24.52
2019-04-25T10:38:33.571Z,24.90
2019-04-25T10:39:33.999Z,23.91
2019-04-25T10:40:33.829Z,23.62
2019-04-25T10:41:35.397Z,22.52
2019-04-25T10:42:34.177Z,23.61
2019-04-25T10:43:34.091Z,24.29
2019-04-25T10:44:33.831Z,21.91
2019-04-25T10:45:33.997Z,21.33
2019-04-25T10:46:33.960Z,20.54
2019-04-25T10:47:33.405Z,22.49
2019-04-25T10:48:34.290Z,22.09
2019-04-25T10:49:34.353Z,23.65
2019-04-25T10:50:34.005Z,21.88
2019-04-25T10:51:34.140Z,21.09
2019-04-25T10:52:33.779Z,21.28
2019-04-25T10:53:33.824Z,20.89
2019-04-25T10:54:34.947Z,21.09
2019-04-25T10:55:32.321Z,22.06
2019-04-25T10:56:33.470Z,21.87
2019-04-25T10:57:33.880Z,21.96
2019-04-25T10:58:33.525Z,21.66
2019-04-25T10:59:32.278Z,21.27
2019-04-25T11:00:33.800Z,20.98
2019-04-25T11:01:33.774Z,21.56
2019-04-25T11:02:33.950Z,22.84
2019-04-25T11:03:33.727Z,22.16
2019-04-25T11:04:32.229Z,22.16
2019-04-25T11:05:32.218Z,22.35
2019-04-25T11:06:33.684Z,22.05
2019-04-25T11:07:33.818Z,22.83
2019-04-25T11:08:33.873Z,22.14
2019-04-25T11:09:34.261Z,22.42
2019-04-25T11:10:32.166Z,22.22
2019-04-25T11:11:32.165Z,20.85
2019-04-25T11:12:33.799Z,21.04
2019-04-25T11:13:33.906Z,20.74
2019-04-25T11:14:32.132Z,21.03
2019-04-25T11:15:33.889Z,20.63
2019-04-25T11:16:33.308Z,20.14
2019-04-25T11:17:33.737Z,20.34
2019-04-25T11:18:33.890Z,19.35
2019-04-25T11:19:33.861Z,19.84
2019-04-25T11:20:33.709Z,19.73
2019-04-25T11:21:33.314Z,20.21
2019-04-25T11:22:32.046Z,19.32
2019-04-25T11:23:32.046Z,20.09
2019-04-25T11:24:32.027Z,18.72
2019-04-25T11:25:32.018Z,19.21
2019-04-25T11:26:34.490Z,18.62
2019-04-25T11:27:31.999Z,17.24
2019-04-25T11:28:33.610Z,17.24
2019-04-25T11:29:31.980Z,16.05
2019-04-25T11:30:31.968Z,16.63
2019-04-25T11:31:33.545Z,15.84
2019-04-25T11:32:33.797Z,15.26
2019-04-25T11:33:33.416Z,15.25
2019-04-25T11:34:31.931Z,15.25
2019-04-25T11:35:31.921Z,13.98
2019-04-25T11:36:31.934Z,13.79
2019-04-25T11:37:31.914Z,13.78
2019-04-25T11:38:31.895Z,14.27
2019-04-25T11:39:31.884Z,15.34
2019-04-25T11:40:31.880Z,14.55
2019-04-25T11:41:31.864Z,14.54
2019-04-25T11:42:31.868Z,14.92
2019-04-25T11:43:31.854Z,14.63
2019-04-25T11:44:33.286Z,13.85
2019-04-25T11:45:31.829Z,13.85
2019-04-25T11:46:33.305Z,13.85
2019-04-25T11:47:33.408Z,13.67
2019-04-25T11:48:31.800Z,15.05
2019-04-25T11:49:31.789Z,14.01
2019-04-25T11:50:31.781Z,13.93
2019-04-25T11:51:31.769Z,15.03
2019-04-25T11:52:33.505Z,16.41
2019-04-25T11:53:31.750Z,16.41
2019-04-25T11:54:31.742Z,15.80
2019-04-25T11:55:31.732Z,14.32
2019-04-25T11:56:31.722Z,14.59
2019-04-25T11:57:31.720Z,14.48
2019-04-25T11:58:31.734Z,13.78
2019-04-25T11:59:31.692Z,12.51
2019-04-25T12:00:31.688Z,13.67
2019-04-25T12:01:33.520Z,14.45
2019-04-25T12:02:31.672Z,12.99
2019-04-25T12:03:31.656Z,13.29
2019-04-25T12:04:33.179Z,14.07
2019-04-25T12:05:31.635Z,14.26
2019-04-25T12:06:31.626Z,15.14
2019-04-25T12:07:40.421Z,15.15
2019-04-25T12:08:31.607Z,15.17
2019-04-25T12:09:31.601Z,15.07
2019-04-25T12:10:31.587Z,15.36
2019-04-25T12:11:31.577Z,14.69
2019-04-25T12:12:33.716Z,15.66
2019-04-25T12:13:31.565Z,15.28
2019-04-25T12:14:31.551Z,15.28
2019-04-25T12:15:33.278Z,16.07
2019-04-25T12:16:31.528Z,16.08
2019-04-25T12:17:31.541Z,16.86
2019-04-25T12:18:33.368Z,16.68
2019-04-25T12:19:35.713Z,16.39
2019-04-25T12:20:33.958Z,15.32
2019-04-25T12:21:31.488Z,16.02
2019-04-25T12:22:31.479Z,17.29
2019-04-25T12:23:31.471Z,18.27
2019-04-25T12:24:33.296Z,17.20
2019-04-25T12:25:31.437Z,17.69
2019-04-25T12:26:33.589Z,17.30
2019-04-25T12:27:31.423Z,18.09
2019-04-25T12:28:31.415Z,17.80
2019-04-25T12:29:31.399Z,18.29
2019-04-25T12:30:38.081Z,17.32
2019-04-25T12:31:34.066Z,18.02
2019-04-25T12:32:31.380Z,19.01
2019-04-25T12:33:31.370Z,19.20
2019-04-25T12:34:31.350Z,18.13
2019-04-25T12:35:31.362Z,18.63
2019-04-25T12:36:31.324Z,19.62
2019-04-25T12:37:31.314Z,20.41
2019-04-25T12:38:31.318Z,20.03
2019-04-25T12:39:31.296Z,18.66
2019-04-25T12:40:31.283Z,19.54
2019-04-25T12:41:31.290Z,21.03
2019-04-25T12:42:31.270Z,20.64
2019-04-25T12:43:31.270Z,19.87
2019-04-25T12:44:31.244Z,20.17
2019-04-25T12:45:31.238Z,20.47
2019-04-25T12:46:31.220Z,21.26
2019-04-25T12:47:31.212Z,21.55
2019-04-25T12:48:31.240Z,20.57
2019-04-25T12:49:31.193Z,21.95
2019-04-25T12:50:31.180Z,20.68
2019-04-25T12:51:31.184Z,20.88
2019-04-25T12:52:31.160Z,20.79